Time;durP1;ratioP1;P1;durP2;ratioP2;P2;SDS_P1;SDS_P2;PMS_P1;PMS_P2;Temp;Humidity;BMP_temperature;BMP_pressure;BME280_temperature;BME280_humidity;BME280_pressure;Samples;Min_cycle;Max_cycle;Signal;HPM_P1;HPM_P2
2023/06/14 00:00:07;;;;;;;7.38;2.25;;;;;;;;;;6252610;22;20235;-94
2023/06/14 00:02:34;;;;;;;5.68;1.80;;;;;;;;;;6254022;22;20022;-94
2023/06/14 00:05:04;;;;;;;10.45;3.00;;;;;;;;;;6228124;22;20011;-94
2023/06/14 00:07:35;;;;;;;8.55;1.90;;;;;;;;;;6229196;22;20012;-94
2023/06/14 00:10:14;;;;;;;5.90;2.08;;;;;;;;;;6252538;22;20071;-94
2023/06/14 00:12:40;;;;;;;14.77;2.08;;;;;;;;;;6230320;22;20062;-94
2023/06/14 00:15:09;;;;;;;7.32;1.88;;;;;;;;;;6228646;22;20012;-94
2023/06/14 00:17:44;;;;;;;5.70;1.77;;;;;;;;;;6254607;22;20024;-94
2023/06/14 00:20:12;;;;;;;10.80;2.25;;;;;;;;;;6256427;22;20007;-94
2023/06/14 00:22:38;;;;;;;6.10;1.80;;;;;;;;;;6235280;22;20445;-94
2023/06/14 00:25:08;;;;;;;4.60;2.13;;;;;;;;;;6262177;22;20000;-94
2023/06/14 00:27:36;;;;;;;7.35;1.95;;;;;;;;;;6238634;22;20027;-94
2023/06/14 00:30:02;;;;;;;5.38;2.08;;;;;;;;;;6237019;22;20369;-93
2023/06/14 00:32:30;;;;;;;5.13;2.10;;;;;;;;;;6261331;22;20057;-93
2023/06/14 00:34:56;;;;;;;5.22;1.85;;;;;;;;;;6259917;22;20386;-93
2023/06/14 00:37:25;;;;;;;4.43;1.98;;;;;;;;;;6259557;22;20000;-94
2023/06/14 00:39:51;;;;;;;5.50;1.88;;;;;;;;;;6258819;22;20007;-94
2023/06/14 00:42:44;;;;;;;3.75;1.50;;;;;;;;;;6233245;22;20003;-94
2023/06/14 00:45:11;;;;;;;7.35;2.53;;;;;;;;;;6237070;22;20015;-94
2023/06/14 00:47:38;;;;;;;7.75;2.13;;;;;;;;;;6255725;22;20120;-95
2023/06/14 00:50:11;;;;;;;4.32;1.80;;;;;;;;;;6224935;22;20082;-94
2023/06/14 00:52:37;;;;;;;6.90;2.20;;;;;;;;;;6247516;23;20004;-94
2023/06/14 00:55:12;;;;;;;5.00;1.88;;;;;;;;;;6248105;23;20008;-95
2023/06/14 00:57:42;;;;;;;4.25;1.80;;;;;;;;;;6221473;23;20370;-93
2023/06/14 01:00:09;;;;;;;6.15;1.80;;;;;;;;;;6221523;23;20020;-94
2023/06/14 01:02:37;;;;;;;4.43;1.75;;;;;;;;;;6220842;23;20039;-94
2023/06/14 01:05:04;;;;;;;5.82;1.90;;;;;;;;;;6245929;23;20127;-94
2023/06/14 01:07:54;;;;;;;4.82;1.80;;;;;;;;;;6245626;23;20071;-94
2023/06/14 01:10:41;;;;;;;5.65;1.85;;;;;;;;;;6244989;23;20009;-94
2023/06/14 01:13:18;;;;;;;2.97;1.58;;;;;;;;;;6246294;23;20489;-94
2023/06/14 01:15:45;;;;;;;8.05;2.15;;;;;;;;;;6245687;23;20481;-94
2023/06/14 01:18:17;;;;;;;3.10;1.90;;;;;;;;;;6247475;23;20031;-94
2023/06/14 01:20:54;;;;;;;3.55;2.95;;;;;;;;;;6244874;23;20083;-94
2023/06/14 01:23:25;;;;;;;6.95;2.22;;;;;;;;;;6245568;23;20012;-94
2023/06/14 01:25:55;;;;;;;5.05;1.73;;;;;;;;;;6244137;23;20012;-94
2023/06/14 01:28:22;;;;;;;14.30;1.90;;;;;;;;;;6219664;23;20016;-94
2023/06/14 01:31:28;;;;;;;3.50;1.90;;;;;;;;;;6244977;23;20016;-94
2023/06/14 01:34:13;;;;;;;9.60;2.35;;;;;;;;;;6241550;23;20355;-94
2023/06/14 01:36:42;;;;;;;3.05;1.70;;;;;;;;;;6220096;23;20020;-94
2023/06/14 01:39:11;;;;;;;4.70;2.15;;;;;;;;;;6243058;23;20004;-94
2023/06/14 01:41:37;;;;;;;5.97;1.73;;;;;;;;;;6242691;23;20189;-94
2023/06/14 01:44:04;;;;;;;2.88;1.98;;;;;;;;;;6218202;23;20419;-94
2023/06/14 01:46:30;;;;;;;8.50;2.20;;;;;;;;;;6242329;23;20012;-94
2023/06/14 01:49:03;;;;;;;6.22;1.90;;;;;;;;;;6246404;22;20023;-94
2023/06/14 01:51:55;;;;;;;4.00;1.90;;;;;;;;;;6224410;22;20032;-93
2023/06/14 01:54:22;;;;;;;3.22;1.80;;;;;;;;;;6248283;22;20015;-94
2023/06/14 01:56:49;;;;;;;6.07;1.98;;;;;;;;;;6247588;22;20031;-94
2023/06/14 01:59:18;;;;;;;4.97;2.20;;;;;;;;;;6223452;22;20012;-94
2023/06/14 02:01:46;;;;;;;4.63;2.10;;;;;;;;;;6248629;22;20279;-94
2023/06/14 02:04:24;;;;;;;6.38;2.38;;;;;;;;;;6248447;22;20224;-94
2023/06/14 02:06:53;;;;;;;9.60;1.83;;;;;;;;;;6224722;22;20425;-94
2023/06/14 02:09:19;;;;;;;4.38;2.13;;;;;;;;;;6223389;22;20047;-94
2023/06/14 02:11:45;;;;;;;5.93;1.98;;;;;;;;;;6223365;22;20035;-94
2023/06/14 02:14:12;;;;;;;3.35;1.90;;;;;;;;;;6222233;22;20441;-94
2023/06/14 02:16:39;;;;;;;9.80;2.15;;;;;;;;;;6220573;22;20434;-94
2023/06/14 02:19:23;;;;;;;4.50;2.15;;;;;;;;;;6223026;22;20012;-94
2023/06/14 02:21:50;;;;;;;4.53;2.00;;;;;;;;;;6247234;22;20004;-94
2023/06/14 02:24:31;;;;;;;7.78;2.10;;;;;;;;;;6222416;22;20565;-94
2023/06/14 02:26:59;;;;;;;2.80;2.10;;;;;;;;;;6222576;22;20008;-94
2023/06/14 02:29:28;;;;;;;11.02;2.40;;;;;;;;;;6221946;22;20032;-95
2023/06/14 02:32:01;;;;;;;10.20;2.05;;;;;;;;;;6221992;22;20008;-93
2023/06/14 02:34:33;;;;;;;5.88;2.50;;;;;;;;;;6222238;22;20622;-93
2023/06/14 02:37:20;;;;;;;8.15;2.33;;;;;;;;;;6272266;22;20453;-94
2023/06/14 02:39:46;;;;;;;4.68;2.30;;;;;;;;;;6249790;22;20030;-95
2023/06/14 02:42:13;;;;;;;5.40;2.38;;;;;;;;;;6226020;22;20007;-95
2023/06/14 02:44:50;;;;;;;5.97;2.40;;;;;;;;;;6225605;22;20245;-94
2023/06/14 02:47:20;;;;;;;3.95;2.15;;;;;;;;;;6226043;22;20178;-94
2023/06/14 02:49:46;;;;;;;8.13;2.25;;;;;;;;;;6218997;22;20020;-94
2023/06/14 02:52:13;;;;;;;5.82;2.17;;;;;;;;;;6220244;23;20259;-94
2023/06/14 02:54:48;;;;;;;4.80;1.80;;;;;;;;;;6220186;23;20019;-94
2023/06/14 02:57:15;;;;;;;3.88;2.20;;;;;;;;;;6221099;23;20134;-94
2023/06/14 02:59:41;;;;;;;9.02;2.60;;;;;;;;;;6222563;23;20012;-94
2023/06/14 03:02:37;;;;;;;6.93;2.80;;;;;;;;;;6248299;23;20008;-93
2023/06/14 03:05:04;;;;;;;6.32;2.60;;;;;;;;;;6247605;23;20038;-92
2023/06/14 03:07:31;;;;;;;3.90;2.35;;;;;;;;;;6232487;23;20016;-92
2023/06/14 03:09:58;;;;;;;6.30;2.85;;;;;;;;;;6260312;23;20424;-93
2023/06/14 03:15:14;;;;;;;9.35;2.78;;;;;;;;;;6203150;23;20016;-94
2023/06/14 03:20:35;;;;;;;5.22;2.70;;;;;;;;;;6238079;23;20012;-93
2023/06/14 03:23:28;;;;;;;6.13;2.28;;;;;;;;;;6227292;23;20012;-94
2023/06/14 03:26:17;;;;;;;5.90;2.45;;;;;;;;;;6246974;23;20012;-93
2023/06/14 03:28:41;;;;;;;11.70;2.90;;;;;;;;;;6247169;23;20035;-94
2023/06/14 03:31:18;;;;;;;5.97;2.72;;;;;;;;;;6245430;23;20034;-94
2023/06/14 03:33:45;;;;;;;5.40;2.38;;;;;;;;;;6222642;23;20064;-94
2023/06/14 03:36:11;;;;;;;7.10;2.83;;;;;;;;;;6249554;23;20384;-95
2023/06/14 03:38:38;;;;;;;3.97;2.63;;;;;;;;;;6223717;23;20225;-94
2023/06/14 03:41:07;;;;;;;6.28;3.08;;;;;;;;;;6220991;23;20012;-94
2023/06/14 03:43:33;;;;;;;8.30;2.72;;;;;;;;;;6247077;23;20031;-94
2023/06/14 03:48:52;;;;;;;;;;;;;;;;;;6232580;22;20027;-94
2023/06/14 03:51:36;;;;;;;3.33;2.47;;;;;;;;;;6245934;23;19915;-94
2023/06/14 03:54:03;;;;;;;9.40;2.92;;;;;;;;;;6225098;23;20140;-96
2023/06/14 03:56:29;;;;;;;7.50;3.08;;;;;;;;;;6220270;23;20016;-94
2023/06/14 03:58:56;;;;;;;3.78;2.50;;;;;;;;;;6220371;23;20027;-94
2023/06/14 04:01:29;;;;;;;8.90;2.35;;;;;;;;;;6218666;23;20012;-94
2023/06/14 04:03:57;;;;;;;7.40;2.85;;;;;;;;;;6221615;23;20012;-94
2023/06/14 04:06:24;;;;;;;6.88;3.22;;;;;;;;;;6245548;23;20277;-94
2023/06/14 04:08:52;;;;;;;7.13;2.60;;;;;;;;;;6245061;23;20008;-94
2023/06/14 04:11:22;;;;;;;6.35;2.88;;;;;;;;;;6243515;23;20005;-94
2023/06/14 04:13:48;;;;;;;6.13;3.13;;;;;;;;;;6216957;23;20374;-94
2023/06/14 04:16:15;;;;;;;9.95;2.67;;;;;;;;;;6219769;23;20016;-94
2023/06/14 04:18:44;;;;;;;8.10;3.38;;;;;;;;;;6219674;23;20331;-94
2023/06/14 04:21:11;;;;;;;9.10;2.72;;;;;;;;;;6244840;23;20030;-94
2023/06/14 04:23:43;;;;;;;9.27;3.08;;;;;;;;;;6218830;23;20461;-94
2023/06/14 04:26:20;;;;;;;;;;;;;;;;;;;;;
2023/06/14 04:28:58;;;;;;;7.07;3.10;;;;;;;;;;6244381;23;20083;-94
2023/06/14 04:31:29;;;;;;;7.07;2.97;;;;;;;;;;6221611;23;20035;-94
2023/06/14 04:33:57;;;;;;;5.18;2.78;;;;;;;;;;6243834;23;20011;-94
2023/06/14 04:36:26;;;;;;;5.00;2.70;;;;;;;;;;6219484;23;20091;-93
2023/06/14 04:38:54;;;;;;;5.53;2.53;;;;;;;;;;6244088;23;20071;-94
2023/06/14 04:41:30;;;;;;;15.23;3.20;;;;;;;;;;6218702;23;20023;-94
2023/06/14 04:44:03;;;;;;;7.05;3.00;;;;;;;;;;6219827;23;20358;-94
2023/06/14 04:46:30;;;;;;;7.20;2.70;;;;;;;;;;6220031;23;20008;-94
2023/06/14 04:49:04;;;;;;;6.82;2.60;;;;;;;;;;6244167;22;20016;-94
2023/06/14 04:51:34;;;;;;;6.50;3.10;;;;;;;;;;6274812;22;20099;-94
2023/06/14 04:54:04;;;;;;;11.68;3.38;;;;;;;;;;6226270;22;20008;-94
2023/06/14 04:56:43;;;;;;;5.47;2.83;;;;;;;;;;6224923;22;20063;-94
2023/06/14 04:59:19;;;;;;;8.48;3.25;;;;;;;;;;6250959;22;20011;-93
2023/06/14 05:01:56;;;;;;;6.00;2.60;;;;;;;;;;6225839;22;20026;-94
2023/06/14 05:04:26;;;;;;;3.40;2.22;;;;;;;;;;6228468;22;20019;-94
2023/06/14 05:07:02;;;;;;;9.90;3.03;;;;;;;;;;6189834;23;20059;-93
2023/06/14 05:09:40;;;;;;;7.80;3.05;;;;;;;;;;6190132;23;20021;-95
2023/06/14 05:12:20;;;;;;;10.52;2.75;;;;;;;;;;6212248;23;20167;-93
2023/06/14 05:15:00;;;;;;;;;;;;;;;;;;;;;
2023/06/14 05:17:30;;;;;;;5.95;2.63;;;;;;;;;;6191138;23;20065;-93
2023/06/14 05:20:00;;;;;;;4.25;2.65;;;;;;;;;;6191482;23;20012;-93
2023/06/14 05:22:27;;;;;;;4.60;2.60;;;;;;;;;;6219296;23;20116;-94
2023/06/14 05:25:12;;;;;;;4.60;2.92;;;;;;;;;;6191161;23;20012;-95
2023/06/14 05:27:41;;;;;;;9.93;3.70;;;;;;;;;;6219136;23;20012;-95
2023/06/14 05:30:19;;;;;;;6.10;3.15;;;;;;;;;;6191806;23;20012;-95
2023/06/14 05:32:52;;;;;;;10.10;3.65;;;;;;;;;;6214420;23;20000;-94
2023/06/14 05:35:22;;;;;;;7.63;3.83;;;;;;;;;;6213247;23;20001;-93
2023/06/14 05:37:49;;;;;;;7.40;3.25;;;;;;;;;;6206318;22;20014;-92
2023/06/14 05:40:17;;;;;;;12.07;3.88;;;;;;;;;;6225747;22;20510;-93
2023/06/14 05:42:43;;;;;;;7.75;4.03;;;;;;;;;;6223805;22;20012;-93
2023/06/14 05:45:11;;;;;;;7.00;3.92;;;;;;;;;;6248223;22;20011;-94
2023/06/14 05:47:38;;;;;;;9.43;3.85;;;;;;;;;;6224306;22;20034;-94
2023/06/14 05:50:12;;;;;;;8.75;3.65;;;;;;;;;;6219509;22;20024;-94
2023/06/14 05:52:41;;;;;;;9.48;4.07;;;;;;;;;;6249628;22;20067;-94
2023/06/14 05:55:08;;;;;;;9.40;3.58;;;;;;;;;;6224587;22;20004;-94
2023/06/14 05:57:35;;;;;;;7.00;3.78;;;;;;;;;;6248687;22;20018;-93
2023/06/14 06:00:09;;;;;;;11.32;4.07;;;;;;;;;;6224366;22;20012;-93
2023/06/14 06:02:35;;;;;;;9.95;4.72;;;;;;;;;;6225727;22;20016;-93
2023/06/14 06:05:02;;;;;;;20.90;4.07;;;;;;;;;;6222946;22;20007;-91
2023/06/14 06:08:02;;;;;;;7.97;3.92;;;;;;;;;;4737138;27;8366757;-88
2023/06/14 06:10:29;;;;;;;14.25;3.95;;;;;;;;;;5001755;28;20049;-87
2023/06/14 06:12:55;;;;;;;6.80;3.95;;;;;;;;;;5011040;28;20030;-90
2023/06/14 06:15:21;;;;;;;12.90;3.58;;;;;;;;;;5021344;28;20034;-87
2023/06/14 06:17:47;;;;;;;6.72;3.13;;;;;;;;;;5031986;28;20037;-89
2023/06/14 06:20:14;;;;;;;5.32;3.42;;;;;;;;;;5024003;28;20306;-88
2023/06/14 06:22:42;;;;;;;5.25;3.15;;;;;;;;;;5001236;28;20074;-88
2023/06/14 06:25:08;;;;;;;6.18;3.63;;;;;;;;;;5028115;28;20025;-88
2023/06/14 06:27:37;;;;;;;7.97;3.28;;;;;;;;;;4997837;28;20030;-89
2023/06/14 06:30:03;;;;;;;8.80;3.55;;;;;;;;;;5020233;28;20064;-88
2023/06/14 06:32:32;;;;;;;6.43;3.47;;;;;;;;;;5006154;28;20097;-88
2023/06/14 06:35:00;;;;;;;4.93;3.22;;;;;;;;;;5011700;28;20030;-88
2023/06/14 06:37:26;;;;;;;4.32;3.25;;;;;;;;;;5023449;28;20061;-87
2023/06/14 06:40:13;;;;;;;4.68;2.97;;;;;;;;;;5000340;28;20803;-87
2023/06/14 06:42:41;;;;;;;4.93;2.85;;;;;;;;;;4997282;28;20494;-88
2023/06/14 06:45:11;;;;;;;4.97;2.35;;;;;;;;;;5001130;28;20034;-87
2023/06/14 06:47:39;;;;;;;4.57;3.17;;;;;;;;;;5015428;28;20491;-86
2023/06/14 06:50:07;;;;;;;3.78;2.72;;;;;;;;;;5001640;28;20033;-87
2023/06/14 06:52:34;;;;;;;4.63;2.95;;;;;;;;;;5005228;28;20037;-88
2023/06/14 06:55:00;;;;;;;8.32;3.00;;;;;;;;;;4997390;28;20026;-88
2023/06/14 06:57:29;;;;;;;7.15;3.00;;;;;;;;;;5002117;28;20076;-87
2023/06/14 06:59:55;;;;;;;8.60;3.40;;;;;;;;;;4999254;28;20023;-87
2023/06/14 07:02:31;;;;;;;9.90;3.08;;;;;;;;;;5017627;28;20498;-87
2023/06/14 07:04:57;;;;;;;6.97;2.53;;;;;;;;;;5004198;28;20037;-89
2023/06/14 07:07:23;;;;;;;6.43;2.72;;;;;;;;;;5005977;28;20127;-86
2023/06/14 07:09:50;;;;;;;5.65;2.80;;;;;;;;;;4997386;28;20038;-87
2023/06/14 07:12:17;;;;;;;5.40;3.10;;;;;;;;;;4992077;28;20026;-88
2023/06/14 07:14:43;;;;;;;10.07;2.50;;;;;;;;;;4984951;28;20034;-87
2023/06/14 07:17:09;;;;;;;5.53;2.58;;;;;;;;;;5009122;28;20022;-87
2023/06/14 07:19:35;;;;;;;9.55;2.58;;;;;;;;;;4968028;28;20716;-87
2023/06/14 07:22:02;;;;;;;3.75;3.15;;;;;;;;;;4977683;28;20034;-87
2023/06/14 07:24:36;;;;;;;3.78;2.40;;;;;;;;;;4969353;28;20069;-87
2023/06/14 07:27:04;;;;;;;3.78;2.17;;;;;;;;;;4988841;28;20066;-87
2023/06/14 07:29:32;;;;;;;4.70;2.60;;;;;;;;;;4985377;28;20061;-87
2023/06/14 07:32:00;;;;;;;4.32;2.65;;;;;;;;;;4985894;28;20046;-88
2023/06/14 07:34:32;;;;;;;8.35;2.67;;;;;;;;;;4992216;28;20031;-87
2023/06/14 07:36:58;;;;;;;10.05;2.47;;;;;;;;;;4994769;28;20033;-88
2023/06/14 07:39:26;;;;;;;5.55;2.78;;;;;;;;;;4975400;28;20043;-92
2023/06/14 07:41:53;;;;;;;6.20;2.60;;;;;;;;;;4999757;28;20037;-87
2023/06/14 07:44:20;;;;;;;4.75;2.38;;;;;;;;;;4974359;28;20042;-90
2023/06/14 07:46:49;;;;;;;4.20;2.70;;;;;;;;;;4986705;28;20160;-88
2023/06/14 07:49:17;;;;;;;6.15;2.67;;;;;;;;;;4985595;28;20042;-87
2023/06/14 07:51:44;;;;;;;6.65;2.13;;;;;;;;;;4990107;28;20515;-89
2023/06/14 07:54:11;;;;;;;5.18;2.33;;;;;;;;;;4975364;28;20034;-89
2023/06/14 07:56:37;;;;;;;5.40;2.30;;;;;;;;;;5003699;28;20479;-88
2023/06/14 07:59:03;;;;;;;4.18;2.28;;;;;;;;;;4978924;28;20026;-87
2023/06/14 08:01:29;;;;;;;5.85;2.75;;;;;;;;;;4984717;28;20038;-88
2023/06/14 08:03:59;;;;;;;9.45;2.88;;;;;;;;;;4991666;28;20050;-88
2023/06/14 08:06:26;;;;;;;6.75;2.90;;;;;;;;;;4976835;28;20039;-88
2023/06/14 08:08:53;;;;;;;4.03;2.42;;;;;;;;;;4993650;28;20036;-89
2023/06/14 08:11:19;;;;;;;7.80;2.42;;;;;;;;;;4974136;28;20037;-88
2023/06/14 08:13:45;;;;;;;6.00;2.17;;;;;;;;;;4980295;28;20033;-87
2023/06/14 08:16:11;;;;;;;4.68;2.78;;;;;;;;;;4974446;28;20075;-87
2023/06/14 08:18:39;;;;;;;5.18;2.30;;;;;;;;;;4991398;28;20054;-89
2023/06/14 08:21:09;;;;;;;4.10;2.60;;;;;;;;;;4984097;28;20031;-88
2023/06/14 08:23:45;;;;;;;4.88;2.50;;;;;;;;;;4985669;28;20042;-90
2023/06/14 08:26:15;;;;;;;5.88;3.33;;;;;;;;;;4991504;28;20030;-88
2023/06/14 08:28:55;;;;;;;5.55;2.20;;;;;;;;;;4994091;28;20120;-88
2023/06/14 08:31:22;;;;;;;6.07;2.75;;;;;;;;;;4976757;28;20053;-88
2023/06/14 08:33:51;;;;;;;5.50;2.60;;;;;;;;;;4989351;28;20049;-88
2023/06/14 08:36:18;;;;;;;6.07;2.20;;;;;;;;;;4991446;28;20421;-88
2023/06/14 08:39:05;;;;;;;5.03;2.15;;;;;;;;;;4990307;28;20088;-88
2023/06/14 08:41:37;;;;;;;5.65;2.33;;;;;;;;;;4983391;28;20097;-88
2023/06/14 08:44:04;;;;;;;3.15;2.00;;;;;;;;;;4981858;28;20066;-88
2023/06/14 08:46:47;;;;;;;7.10;2.22;;;;;;;;;;4987140;28;20035;-88
2023/06/14 08:49:15;;;;;;;6.28;2.58;;;;;;;;;;4995080;28;20049;-89
2023/06/14 08:51:44;;;;;;;3.55;2.33;;;;;;;;;;4989860;28;20038;-88
2023/06/14 08:54:15;;;;;;;3.17;2.15;;;;;;;;;;4982398;28;20066;-88
2023/06/14 08:57:12;;;;;;;3.55;2.35;;;;;;;;;;5002313;28;20030;-88
2023/06/14 08:59:48;;;;;;;7.55;2.53;;;;;;;;;;5002946;28;20053;-88
2023/06/14 09:02:19;;;;;;;7.32;2.50;;;;;;;;;;4999327;28;20090;-88
2023/06/14 09:06:08;;;;;;;10.20;3.00;;;;;;;;;;5004565;28;20030;-89
2023/06/14 09:08:35;;;;;;;3.20;2.10;;;;;;;;;;4990189;28;20049;-88
2023/06/14 09:11:34;;;;;;;3.53;2.35;;;;;;;;;;5014059;28;20070;-88
2023/06/14 09:14:18;;;;;;;5.45;2.28;;;;;;;;;;5011960;28;20041;-88
2023/06/14 09:17:29;;;;;;;;;;;;;;;;;;;;;
2023/06/14 09:20:21;;;;;;;5.68;2.38;;;;;;;;;;4997814;28;20069;-89
2023/06/14 09:23:20;;;;;;;;;;;;;;;;;;;;;
2023/06/14 09:26:13;;;;;;;5.55;2.58;;;;;;;;;;5007811;28;20099;-89
2023/06/14 09:29:05;;;;;;;4.70;2.28;;;;;;;;;;5006539;28;20036;-89
2023/06/14 09:35:17;;;;;;;;;;;;;;;;;;;;;
2023/06/14 09:37:46;;;;;;;9.95;2.75;;;;;;;;;;5019562;28;20058;-89
2023/06/14 09:40:43;;;;;;;;;;;;;;;;;;;;;
2023/06/14 09:43:45;;;;;;;4.25;2.30;;;;;;;;;;5030218;28;20061;-88
2023/06/14 09:58:21;;;;;;;4.70;2.45;;;;;;;;;;4824771;29;20034;-88
2023/06/14 10:04:11;;;;;;;;;;;;;;;;;;;;;
2023/06/14 10:09:49;;;;;;;6.50;2.88;;;;;;;;;;4943727;28;20103;-88
2023/06/14 10:12:25;;;;;;;9.68;2.63;;;;;;;;;;4913347;28;20159;-88
2023/06/14 10:14:58;;;;;;;5.10;2.22;;;;;;;;;;4936724;29;20104;-89
2023/06/14 10:21:08;;;;;;;3.30;2.10;;;;;;;;;;4955529;29;20032;-89
2023/06/14 10:23:53;;;;;;;3.70;2.58;;;;;;;;;;4920677;29;20043;-90
2023/06/14 10:27:10;;;;;;;4.10;2.40;;;;;;;;;;4950759;29;20087;-89
2023/06/14 10:33:11;;;;;;;4.05;2.05;;;;;;;;;;4927985;29;20039;-88
2023/06/14 10:35:52;;;;;;;10.32;2.60;;;;;;;;;;4939783;29;20012;-89
2023/06/14 11:27:28;;;;;;;3.58;1.80;;;;;;;;;;1098572;23;21505;-87
2023/06/14 11:30:32;;;;;;;4.65;2.35;;;;;;;;;;4895368;29;20064;-89
2023/06/14 11:32:58;;;;;;;4.05;2.10;;;;;;;;;;4872588;29;20035;-90
2023/06/14 11:35:27;;;;;;;2.97;1.70;;;;;;;;;;4874842;29;20096;-90
2023/06/14 11:41:04;;;;;;;9.75;2.30;;;;;;;;;;4883222;29;20052;-89
2023/06/14 11:43:41;;;;;;;2.75;1.85;;;;;;;;;;4887581;29;20037;-89
2023/06/14 11:46:48;;;;;;;5.32;1.83;;;;;;;;;;4881006;29;20045;-88
2023/06/14 11:49:37;;;;;;;5.90;1.50;;;;;;;;;;4811951;29;20348;-89
2023/06/14 11:52:05;;;;;;;4.05;1.63;;;;;;;;;;4854630;29;20044;-89
2023/06/14 11:57:49;;;;;;;9.18;2.10;;;;;;;;;;4880003;29;20033;-89
2023/06/14 12:00:34;;;;;;;3.75;1.80;;;;;;;;;;4863910;29;20045;-89
2023/06/14 12:03:10;;;;;;;2.17;1.63;;;;;;;;;;4853800;29;20038;-90
2023/06/14 12:05:44;;;;;;;4.13;1.73;;;;;;;;;;4839649;29;20495;-89
2023/06/14 12:08:38;;;;;;;4.47;2.00;;;;;;;;;;4846225;29;20396;-90
2023/06/14 12:11:11;;;;;;;7.28;1.88;;;;;;;;;;4855793;29;20034;-89
2023/06/14 12:14:05;;;;;;;6.60;1.65;;;;;;;;;;4836954;29;20045;-89
2023/06/14 12:16:38;;;;;;;5.70;1.48;;;;;;;;;;4798216;29;20035;-91
2023/06/14 12:19:56;;;;;;;5.40;1.90;;;;;;;;;;4778966;29;20054;-91
2023/06/14 12:22:26;;;;;;;3.95;1.73;;;;;;;;;;4805264;29;20038;-88
2023/06/14 12:24:52;;;;;;;6.95;1.88;;;;;;;;;;4777434;30;20043;-88
2023/06/14 12:27:28;;;;;;;3.30;1.90;;;;;;;;;;4773481;29;20194;-89
2023/06/14 12:30:01;;;;;;;3.97;1.88;;;;;;;;;;4819328;29;20693;-88
2023/06/14 12:32:28;;;;;;;6.70;2.22;;;;;;;;;;4806481;29;20372;-88
2023/06/14 12:34:55;;;;;;;2.33;1.35;;;;;;;;;;4847656;29;20045;-88
2023/06/14 12:40:53;;;;;;;6.20;1.48;;;;;;;;;;4820197;29;20096;-88
2023/06/14 12:43:20;;;;;;;8.55;1.83;;;;;;;;;;4805210;29;20042;-87
2023/06/14 12:45:46;;;;;;;4.88;2.00;;;;;;;;;;4844631;29;20041;-88
2023/06/14 12:48:12;;;;;;;2.90;1.75;;;;;;;;;;4858165;29;20123;-88
2023/06/14 12:50:38;;;;;;;2.25;1.58;;;;;;;;;;4835751;29;20094;-88
2023/06/14 12:53:08;;;;;;;3.35;1.50;;;;;;;;;;4846535;29;20540;-88
2023/06/14 12:55:34;;;;;;;3.22;1.60;;;;;;;;;;4843335;29;20536;-88
2023/06/14 13:01:11;;;;;;;2.92;1.70;;;;;;;;;;4861470;29;20073;-88
2023/06/14 13:03:37;;;;;;;3.78;1.52;;;;;;;;;;4818801;29;20049;-88
2023/06/14 13:06:21;;;;;;;2.38;1.55;;;;;;;;;;4851163;29;20045;-88
2023/06/14 13:09:20;;;;;;;2.42;1.45;;;;;;;;;;4862519;29;20707;-88
2023/06/14 13:11:48;;;;;;;1.90;1.38;;;;;;;;;;4862944;29;20041;-88
2023/06/14 13:14:46;;;;;;;;;;;;;;;;;;;;;
2023/06/14 13:17:52;;;;;;;2.47;1.90;;;;;;;;;;4800465;29;20042;-88
2023/06/14 13:20:39;;;;;;;;;;;;;;;;;;;;;
2023/06/14 13:23:07;;;;;;;2.30;1.92;;;;;;;;;;4800530;29;20132;-88
2023/06/14 13:25:50;;;;;;;2.95;1.75;;;;;;;;;;4793051;29;20046;-88
2023/06/14 13:31:55;;;;;;;;;;;;;;;;;;;;;
2023/06/14 13:34:37;;;;;;;5.63;1.80;;;;;;;;;;4796187;29;20445;-89
2023/06/14 13:37:05;;;;;;;3.20;2.10;;;;;;;;;;4793340;29;20046;-87
2023/06/14 13:39:37;;;;;;;8.82;1.98;;;;;;;;;;4817495;29;20074;-88
2023/06/14 13:42:11;;;;;;;8.23;1.58;;;;;;;;;;4884055;29;20057;-88
2023/06/14 13:48:21;;;;;;;5.13;1.90;;;;;;;;;;4857630;29;20077;-88
2023/06/14 13:51:01;;;;;;;4.90;1.70;;;;;;;;;;4884540;29;20050;-87
2023/06/14 13:53:27;;;;;;;3.55;1.85;;;;;;;;;;4869192;29;20033;-88
2023/06/14 13:55:54;;;;;;;8.63;1.98;;;;;;;;;;4856274;29;20044;-88
2023/06/14 13:58:26;;;;;;;6.65;2.33;;;;;;;;;;4852923;29;20124;-88
2023/06/14 14:00:52;;;;;;;5.00;1.88;;;;;;;;;;4850160;29;20048;-88
2023/06/14 14:03:24;;;;;;;6.47;1.88;;;;;;;;;;4867931;29;20284;-89
2023/06/14 14:05:51;;;;;;;2.00;1.77;;;;;;;;;;4876001;29;20045;-88
2023/06/14 14:08:21;;;;;;;7.40;1.85;;;;;;;;;;4837138;29;20029;-88
2023/06/14 14:11:10;;;;;;;3.65;2.17;;;;;;;;;;4860289;29;20044;-88
2023/06/14 14:13:38;;;;;;;2.42;1.65;;;;;;;;;;4857207;29;20045;-88
2023/06/14 14:16:05;;;;;;;3.47;2.03;;;;;;;;;;4869981;29;20072;-88
2023/06/14 14:18:32;;;;;;;3.72;2.00;;;;;;;;;;4855483;29;20053;-89
2023/06/14 14:21:02;;;;;;;4.50;2.00;;;;;;;;;;4871968;29;20069;-89
2023/06/14 14:23:29;;;;;;;10.73;2.08;;;;;;;;;;4859936;29;20075;-88
2023/06/14 14:26:03;;;;;;;4.43;2.03;;;;;;;;;;4843059;29;20045;-88
2023/06/14 14:28:30;;;;;;;4.90;2.20;;;;;;;;;;4863567;29;20056;-88
2023/06/14 14:31:12;;;;;;;6.45;2.20;;;;;;;;;;4830278;29;20057;-88
2023/06/14 14:33:51;;;;;;;4.38;1.90;;;;;;;;;;4863789;29;20472;-88
2023/06/14 14:36:17;;;;;;;4.75;1.85;;;;;;;;;;4863739;29;20029;-88
2023/06/14 14:38:47;;;;;;;4.75;2.20;;;;;;;;;;4845635;29;20123;-89
2023/06/14 14:41:15;;;;;;;4.68;1.95;;;;;;;;;;4863101;29;20422;-88
2023/06/14 14:43:42;;;;;;;2.47;1.90;;;;;;;;;;4865625;29;20050;-88
2023/06/14 14:46:30;;;;;;;7.32;2.25;;;;;;;;;;4847976;29;20037;-89
2023/06/14 14:48:57;;;;;;;2.25;1.73;;;;;;;;;;4857049;29;20061;-88
2023/06/14 14:51:33;;;;;;;11.25;2.03;;;;;;;;;;4847219;29;20034;-88
2023/06/14 14:54:06;;;;;;;3.03;2.00;;;;;;;;;;4861331;29;20039;-89
2023/06/14 14:56:42;;;;;;;11.48;3.20;;;;;;;;;;4864028;29;20115;-88
2023/06/14 14:59:09;;;;;;;4.70;2.20;;;;;;;;;;4855539;29;20041;-88
2023/06/14 15:01:40;;;;;;;3.05;2.05;;;;;;;;;;4861411;29;20125;-88
2023/06/14 15:07:09;;;;;;;2.40;1.70;;;;;;;;;;4805550;29;20046;-88
2023/06/14 15:09:57;;;;;;;3.95;1.83;;;;;;;;;;4859678;29;20093;-87
2023/06/14 15:12:25;;;;;;;7.32;2.15;;;;;;;;;;4863800;29;20077;-88
2023/06/14 15:14:54;;;;;;;1.88;1.50;;;;;;;;;;4845911;29;20040;-89
2023/06/14 15:17:30;;;;;;;4.63;2.42;;;;;;;;;;4868138;29;20526;-91
2023/06/14 15:20:15;;;;;;;3.63;2.22;;;;;;;;;;4864462;29;20033;-89
2023/06/14 15:22:47;;;;;;;4.70;2.70;;;;;;;;;;4881989;29;20053;-88
2023/06/14 15:25:13;;;;;;;2.97;2.17;;;;;;;;;;4865602;29;20032;-88
2023/06/14 15:27:41;;;;;;;8.35;2.40;;;;;;;;;;4864224;29;20102;-89
2023/06/14 15:30:08;;;;;;;2.58;2.10;;;;;;;;;;4850421;29;20319;-89
2023/06/14 15:32:34;;;;;;;8.73;2.10;;;;;;;;;;4847964;29;20085;-89
2023/06/14 15:35:00;;;;;;;3.78;2.22;;;;;;;;;;4852596;29;20062;-89
2023/06/14 15:37:26;;;;;;;4.50;1.95;;;;;;;;;;4849309;29;20048;-88
2023/06/14 15:39:55;;;;;;;10.82;2.05;;;;;;;;;;4841179;29;20037;-88
2023/06/14 15:42:25;;;;;;;3.40;2.30;;;;;;;;;;4840895;29;20029;-88
2023/06/14 15:45:07;;;;;;;3.10;2.20;;;;;;;;;;4869991;29;20112;-88
2023/06/14 15:47:40;;;;;;;5.15;2.60;;;;;;;;;;4868509;29;20029;-87
2023/06/14 15:50:10;;;;;;;4.75;3.22;;;;;;;;;;4867204;29;20072;-88
2023/06/14 15:52:36;;;;;;;5.07;1.90;;;;;;;;;;4855089;29;20120;-88
2023/06/14 15:55:03;;;;;;;2.95;2.17;;;;;;;;;;4868996;29;20025;-88
2023/06/14 15:57:36;;;;;;;11.77;2.30;;;;;;;;;;4884818;29;20120;-88
2023/06/14 16:00:03;;;;;;;2.28;2.00;;;;;;;;;;4875541;29;20056;-88
2023/06/14 16:02:38;;;;;;;9.30;2.17;;;;;;;;;;4847191;29;20037;-88
2023/06/14 16:05:06;;;;;;;7.00;3.05;;;;;;;;;;4860716;29;20605;-87
2023/06/14 16:07:32;;;;;;;5.65;2.72;;;;;;;;;;4871560;29;20039;-88
2023/06/14 16:09:59;;;;;;;4.47;2.35;;;;;;;;;;4864751;29;20463;-89
2023/06/14 16:12:25;;;;;;;4.32;2.55;;;;;;;;;;4860067;29;20034;-88
2023/06/14 16:14:51;;;;;;;13.70;2.78;;;;;;;;;;4856272;29;20037;-88
2023/06/14 16:17:18;;;;;;;9.10;2.85;;;;;;;;;;4838342;29;20671;-88
2023/06/14 16:19:44;;;;;;;9.13;2.67;;;;;;;;;;4856490;29;20037;-87
2023/06/14 16:22:29;;;;;;;;;;;;;;;;;;;;;
2023/06/14 16:25:02;;;;;;;12.73;3.60;;;;;;;;;;4855055;29;20037;-92
2023/06/14 16:27:28;;;;;;;6.80;2.72;;;;;;;;;;4860118;29;20055;-89
2023/06/14 16:29:54;;;;;;;9.32;2.85;;;;;;;;;;4861275;29;20097;-89
2023/06/14 16:32:21;;;;;;;11.82;2.85;;;;;;;;;;4868865;29;20403;-87
2023/06/14 16:34:47;;;;;;;13.25;3.00;;;;;;;;;;4858073;29;20049;-88
2023/06/14 16:37:16;;;;;;;7.32;2.88;;;;;;;;;;4842751;29;20033;-92
2023/06/14 16:39:46;;;;;;;8.82;2.65;;;;;;;;;;4862326;29;20043;-91
2023/06/14 16:42:12;;;;;;;4.65;2.50;;;;;;;;;;4857163;29;20072;-88
2023/06/14 16:44:42;;;;;;;8.85;2.75;;;;;;;;;;4857138;29;20065;-88
2023/06/14 16:47:10;;;;;;;6.30;2.80;;;;;;;;;;4845964;29;20034;-88
2023/06/14 16:49:37;;;;;;;5.95;2.60;;;;;;;;;;4848145;29;20039;-87
2023/06/14 16:52:03;;;;;;;10.70;3.17;;;;;;;;;;4847570;29;20410;-88
2023/06/14 16:54:30;;;;;;;8.07;2.80;;;;;;;;;;4858621;29;20034;-87
2023/06/14 16:57:02;;;;;;;8.52;3.15;;;;;;;;;;4854108;29;20068;-88
2023/06/14 16:59:32;;;;;;;7.45;3.40;;;;;;;;;;4871736;29;20040;-88
2023/06/14 17:02:12;;;;;;;5.25;2.50;;;;;;;;;;4869354;29;20050;-87
2023/06/14 17:04:43;;;;;;;9.07;2.80;;;;;;;;;;4876082;29;20379;-88
2023/06/14 17:07:36;;;;;;;4.18;2.72;;;;;;;;;;4865138;29;20049;-92
2023/06/14 17:10:02;;;;;;;5.03;3.03;;;;;;;;;;4859259;29;20049;-88
2023/06/14 17:12:32;;;;;;;7.07;2.97;;;;;;;;;;4843033;29;20033;-88
2023/06/14 17:14:58;;;;;;;6.10;2.40;;;;;;;;;;4842450;29;20038;-88